Time;durP1;ratioP1;P1;durP2;ratioP2;P2;SDS_P1;SDS_P2;PMS_P1;PMS_P2;Temp;Humidity;BMP_temperature;BMP_pressure;BME280_temperature;BME280_humidity;BME280_pressure;Samples;Min_cycle;Max_cycle;Signal;HPM_P1;HPM_P2
2022/09/10 05:00:11;;;;;;;1.13;0.70;;;16.80;97.20;;;;;;1735556;28;20172;-72
2022/09/10 05:01:01;;;;;;;3.95;0.82;;;16.80;97.20;;;;;;1735163;28;20200;-73
2022/09/10 05:01:53;;;;;;;2.13;0.90;;;16.80;97.20;;;;;;1735468;28;20211;-72
2022/09/10 05:02:45;;;;;;;2.35;0.90;;;16.80;97.20;;;;;;1735299;28;20208;-72
2022/09/10 05:03:37;;;;;;;1.67;0.90;;;16.80;97.20;;;;;;1735389;28;20231;-72
2022/09/10 05:04:28;;;;;;;3.13;1.00;;;16.70;97.20;;;;;;1735409;28;20601;-72
2022/09/10 05:05:19;;;;;;;1.67;0.80;;;16.80;97.20;;;;;;1735435;28;20668;-71
2022/09/10 05:06:10;;;;;;;1.17;0.85;;;16.80;97.20;;;;;;1735422;28;20208;-72
2022/09/10 05:07:02;;;;;;;1.87;0.80;;;16.80;97.20;;;;;;1735207;28;20226;-72
2022/09/10 05:07:52;;;;;;;1.40;0.70;;;16.80;97.20;;;;;;1735138;28;20204;-72
2022/09/10 05:08:44;;;;;;;1.40;0.70;;;16.80;97.20;;;;;;1735237;28;20204;-72
2022/09/10 05:09:35;;;;;;;3.75;1.45;;;16.80;97.20;;;;;;1735357;28;20200;-72
2022/09/10 05:10:27;;;;;;;2.00;0.87;;;16.80;97.20;;;;;;1735319;28;20656;-73
2022/09/10 05:11:18;;;;;;;1.42;0.95;;;16.80;97.20;;;;;;1735294;28;20211;-73
2022/09/10 05:12:10;;;;;;;1.55;0.93;;;16.80;97.20;;;;;;1735333;28;20223;-72
2022/09/10 05:13:01;;;;;;;0.90;0.73;;;16.80;97.20;;;;;;1735234;28;20694;-72
2022/09/10 05:13:52;;;;;;;1.10;0.80;;;16.80;97.20;;;;;;1735303;28;20415;-74
2022/09/10 05:14:43;;;;;;;1.10;0.60;;;16.90;97.20;;;;;;1735128;28;20200;-71
2022/09/10 05:15:40;;;;;;;0.97;0.80;;;16.90;97.20;;;;;;1735373;28;20200;-72
2022/09/10 05:16:30;;;;;;;1.67;0.77;;;16.90;97.20;;;;;;1735431;28;20211;-72
2022/09/10 05:17:22;;;;;;;1.27;0.63;;;16.90;97.20;;;;;;1734880;28;20243;-72
2022/09/10 05:18:13;;;;;;;1.55;0.70;;;16.90;97.20;;;;;;1735379;28;20207;-73
2022/09/10 05:19:05;;;;;;;2.03;0.70;;;16.90;97.20;;;;;;1735249;28;20200;-73
2022/09/10 05:19:55;;;;;;;2.88;0.88;;;16.90;97.20;;;;;;1735250;28;20203;-72
2022/09/10 05:20:47;;;;;;;1.30;0.80;;;16.90;97.20;;;;;;1735329;28;20200;-73
2022/09/10 05:21:38;;;;;;;1.60;0.85;;;16.90;97.20;;;;;;1735263;28;20243;-74
2022/09/10 05:22:29;;;;;;;1.60;0.70;;;16.90;97.20;;;;;;1735336;28;20218;-72
2022/09/10 05:23:20;;;;;;;1.73;0.80;;;16.90;97.20;;;;;;1735149;28;20572;-73
2022/09/10 05:24:12;;;;;;;1.50;0.70;;;16.90;97.20;;;;;;1735298;28;20204;-72
2022/09/10 05:25:05;;;;;;;2.17;0.93;;;16.90;97.20;;;;;;1735263;28;20211;-72
2022/09/10 05:25:57;;;;;;;1.45;0.75;;;16.90;97.20;;;;;;1735326;28;20570;-72
2022/09/10 05:26:47;;;;;;;1.65;1.17;;;16.90;97.20;;;;;;1735123;28;20214;-72
2022/09/10 05:27:40;;;;;;;1.40;0.70;;;16.90;97.20;;;;;;1734948;28;20207;-74
2022/09/10 05:28:31;;;;;;;2.00;0.95;;;16.90;97.20;;;;;;1735163;28;20210;-72
2022/09/10 05:29:22;;;;;;;2.43;0.90;;;16.90;97.20;;;;;;1735000;28;20271;-72
2022/09/10 05:30:13;;;;;;;1.00;0.60;;;16.90;97.20;;;;;;1735192;28;20231;-73
2022/09/10 05:31:08;;;;;;;1.70;0.70;;;16.90;97.20;;;;;;1735225;28;20192;-72
2022/09/10 05:31:59;;;;;;;1.70;0.88;;;16.80;97.20;;;;;;1735054;28;20500;-72
2022/09/10 05:32:52;;;;;;;2.17;0.73;;;16.80;97.20;;;;;;1735282;28;20250;-72
2022/09/10 05:33:42;;;;;;;2.17;0.90;;;16.80;97.20;;;;;;1735176;28;20211;-72
2022/09/10 05:34:34;;;;;;;1.40;0.90;;;16.80;97.20;;;;;;1735241;28;20210;-73
2022/09/10 05:35:25;;;;;;;1.02;0.85;;;16.80;97.20;;;;;;1735165;28;20231;-70
2022/09/10 05:36:17;;;;;;;2.38;0.73;;;16.80;97.20;;;;;;1735151;28;20199;-73
2022/09/10 05:37:08;;;;;;;2.15;1.00;;;16.90;97.20;;;;;;1735109;28;20223;-72
2022/09/10 05:38:00;;;;;;;1.30;0.80;;;16.90;97.20;;;;;;1734565;28;20206;-73
2022/09/10 05:38:51;;;;;;;2.40;1.05;;;16.90;97.20;;;;;;1735154;28;20199;-73
2022/09/10 05:39:42;;;;;;;0.93;0.70;;;16.90;97.20;;;;;;1734962;28;20198;-72
2022/09/10 05:40:33;;;;;;;1.10;1.00;;;16.90;97.20;;;;;;1735176;28;20227;-72
2022/09/10 05:41:26;;;;;;;1.47;0.70;;;16.90;97.20;;;;;;1735151;28;20208;-73
2022/09/10 05:42:17;;;;;;;1.30;0.63;;;16.90;97.20;;;;;;1735152;28;20561;-73
2022/09/10 05:43:11;;;;;;;1.43;0.87;;;16.90;97.20;;;;;;1735207;28;20617;-73
2022/09/10 05:44:02;;;;;;;1.15;0.73;;;16.90;97.20;;;;;;1735000;28;20263;-73
2022/09/10 05:44:54;;;;;;;1.13;0.68;;;16.90;97.20;;;;;;1735203;28;20283;-74
2022/09/10 05:45:45;;;;;;;1.10;0.77;;;16.90;97.20;;;;;;1732146;28;20239;-73
2022/09/10 05:46:39;;;;;;;1.67;0.90;;;16.90;97.20;;;;;;1730812;28;20192;-73
2022/09/10 05:47:30;;;;;;;1.88;1.00;;;16.90;97.20;;;;;;1731125;28;20231;-74
2022/09/10 05:48:21;;;;;;;1.20;0.90;;;16.90;97.20;;;;;;1735129;28;20208;-73
2022/09/10 05:49:13;;;;;;;1.65;0.80;;;16.90;97.20;;;;;;1732970;28;20192;-72
2022/09/10 05:50:05;;;;;;;2.25;1.00;;;16.90;97.20;;;;;;1734447;28;20192;-73
2022/09/10 05:50:56;;;;;;;1.50;1.05;;;16.90;97.20;;;;;;1734454;28;20230;-73
2022/09/10 05:51:48;;;;;;;1.70;0.80;;;16.90;97.20;;;;;;1734819;28;20223;-73
2022/09/10 05:52:39;;;;;;;1.20;0.90;;;16.90;97.20;;;;;;1735149;28;20670;-73
2022/09/10 05:53:31;;;;;;;1.63;0.90;;;16.90;97.20;;;;;;1735084;28;20207;-73
2022/09/10 05:54:21;;;;;;;1.40;0.80;;;16.90;97.20;;;;;;1735042;28;20455;-73
2022/09/10 05:55:13;;;;;;;1.33;0.83;;;16.90;97.20;;;;;;1734620;28;20276;-72
2022/09/10 05:56:04;;;;;;;1.90;0.90;;;16.90;97.20;;;;;;1735023;28;20580;-72
2022/09/10 05:56:57;;;;;;;1.30;0.70;;;16.90;97.20;;;;;;1734865;28;20306;-74
2022/09/10 05:57:48;;;;;;;3.55;0.90;;;16.90;97.20;;;;;;1734847;28;20203;-73
2022/09/10 05:58:40;;;;;;;1.60;0.70;;;16.90;97.20;;;;;;1735076;28;20282;-72
2022/09/10 05:59:30;;;;;;;3.63;0.90;;;16.90;97.20;;;;;;1735160;28;20204;-72
2022/09/10 06:00:23;;;;;;;1.10;0.80;;;16.80;97.20;;;;;;1735075;28;20202;-74
2022/09/10 06:01:14;;;;;;;1.80;0.80;;;16.80;97.20;;;;;;1735028;28;20208;-74
2022/09/10 06:02:15;;;;;;;1.17;0.82;;;16.80;97.20;;;;;;1735048;28;20223;-74
2022/09/10 06:03:06;;;;;;;2.65;0.98;;;16.90;97.20;;;;;;1734999;28;20203;-72
2022/09/10 06:03:58;;;;;;;1.42;1.00;;;16.90;97.20;;;;;;1734920;28;20231;-72
2022/09/10 06:04:49;;;;;;;1.63;0.80;;;16.90;97.20;;;;;;1734660;28;20215;-72
2022/09/10 06:05:41;;;;;;;1.43;1.10;;;16.90;97.20;;;;;;1734210;28;20192;-73
2022/09/10 06:06:31;;;;;;;1.52;0.90;;;16.80;97.20;;;;;;1734277;28;20291;-73
2022/09/10 06:07:24;;;;;;;4.23;0.90;;;16.80;97.20;;;;;;1734400;28;20266;-73
2022/09/10 06:08:15;;;;;;;1.55;0.80;;;16.80;97.20;;;;;;1734981;28;20655;-73
2022/09/10 06:09:06;;;;;;;1.63;0.85;;;16.80;97.20;;;;;;1734906;28;20188;-73
2022/09/10 06:09:58;;;;;;;1.25;0.90;;;16.80;97.20;;;;;;1735020;28;20887;-73
2022/09/10 06:11:01;;;;;;;2.35;1.00;;;16.80;97.20;;;;;;1734981;28;20246;-72
2022/09/10 06:11:52;;;;;;;1.23;0.80;;;16.90;97.20;;;;;;1735004;28;20204;-73
2022/09/10 06:12:46;;;;;;;1.10;0.70;;;16.90;97.20;;;;;;1734895;28;20246;-73
2022/09/10 06:13:39;;;;;;;2.20;0.90;;;16.80;97.20;;;;;;1735076;28;20246;-74
2022/09/10 06:14:31;;;;;;;2.10;0.90;;;16.90;97.20;;;;;;1735033;28;20234;-73
2022/09/10 06:15:21;;;;;;;1.27;0.90;;;16.90;97.20;;;;;;1734926;28;20208;-72
2022/09/10 06:16:14;;;;;;;3.10;0.93;;;16.90;97.20;;;;;;1734996;28;20686;-73
2022/09/10 06:17:07;;;;;;;1.80;0.70;;;16.90;97.20;;;;;;1734753;28;20223;-73
2022/09/10 06:17:59;;;;;;;1.33;0.80;;;16.90;97.20;;;;;;1734677;28;20698;-75
2022/09/10 06:18:49;;;;;;;2.45;0.80;;;16.90;97.20;;;;;;1734525;28;20196;-72
2022/09/10 06:19:41;;;;;;;3.20;0.90;;;16.90;97.20;;;;;;1734962;28;20202;-72
2022/09/10 06:20:32;;;;;;;1.60;1.02;;;16.90;97.20;;;;;;1734923;28;20306;-73
2022/09/10 06:21:28;;;;;;;2.75;0.80;;;16.90;97.20;;;;;;1734981;28;20192;-73
2022/09/10 06:22:18;;;;;;;1.67;0.82;;;17.00;97.20;;;;;;1734878;28;20682;-72
2022/09/10 06:23:10;;;;;;;1.13;0.90;;;17.00;97.20;;;;;;1734941;28;20671;-72
2022/09/10 06:24:01;;;;;;;1.30;0.90;;;17.00;97.20;;;;;;1734798;28;20520;-73
2022/09/10 06:24:54;;;;;;;1.20;0.87;;;17.00;97.20;;;;;;1734874;28;20645;-73
2022/09/10 06:25:47;;;;;;;1.35;0.80;;;16.90;97.20;;;;;;1734883;28;20486;-73
2022/09/10 06:26:38;;;;;;;3.15;1.00;;;16.90;97.20;;;;;;1734748;28;20724;-73
2022/09/10 06:27:29;;;;;;;2.08;0.95;;;16.90;97.20;;;;;;1734579;28;20212;-73
2022/09/10 06:28:21;;;;;;;0.90;0.60;;;17.00;97.20;;;;;;1734827;28;20211;-74
2022/09/10 06:29:11;;;;;;;1.75;0.80;;;16.90;97.20;;;;;;1734830;28;20210;-73
2022/09/10 06:30:04;;;;;;;1.17;0.80;;;16.90;97.20;;;;;;1734860;28;20202;-73
2022/09/10 06:30:54;;;;;;;2.17;0.80;;;16.90;97.20;;;;;;1734902;28;20620;-72
2022/09/10 06:31:46;;;;;;;1.60;0.90;;;16.90;97.20;;;;;;1734667;28;20219;-72
2022/09/10 06:32:39;;;;;;;1.67;0.80;;;16.90;97.20;;;;;;1734642;28;20666;-73
2022/09/10 06:33:31;;;;;;;3.25;1.05;;;16.90;97.20;;;;;;1734830;28;20204;-73
2022/09/10 06:34:22;;;;;;;2.95;0.90;;;17.00;97.20;;;;;;1734863;28;20199;-72
2022/09/10 06:35:14;;;;;;;1.57;0.90;;;17.00;97.20;;;;;;1734925;28;20195;-72
2022/09/10 06:36:05;;;;;;;3.78;1.10;;;16.90;97.20;;;;;;1734802;28;20210;-72
2022/09/10 06:36:57;;;;;;;2.35;1.00;;;17.00;97.20;;;;;;1734797;28;20302;-72
2022/09/10 06:37:47;;;;;;;2.58;1.20;;;17.00;97.20;;;;;;1734547;28;20242;-73
2022/09/10 06:38:39;;;;;;;1.87;0.70;;;16.90;97.20;;;;;;1734706;28;20662;-74
2022/09/10 06:39:30;;;;;;;2.38;0.80;;;17.00;97.20;;;;;;1734799;28;21132;-72
2022/09/10 06:40:22;;;;;;;3.00;0.90;;;16.90;97.20;;;;;;1734835;28;20612;-73
2022/09/10 06:41:13;;;;;;;1.92;0.82;;;16.90;97.20;;;;;;1734718;28;20204;-73
2022/09/10 06:42:05;;;;;;;1.88;0.70;;;16.90;97.20;;;;;;1734780;28;20678;-73
2022/09/10 06:43:00;;;;;;;1.90;0.90;;;16.90;97.20;;;;;;1734733;28;20200;-72
2022/09/10 06:43:51;;;;;;;3.08;0.90;;;17.00;97.20;;;;;;1734788;28;20599;-75
2022/09/10 06:44:43;;;;;;;2.55;0.93;;;17.00;97.20;;;;;;1734761;28;20207;-72
2022/09/10 06:45:39;;;;;;;1.83;0.80;;;17.00;97.20;;;;;;1734530;28;20202;-73
2022/09/10 06:46:30;;;;;;;0.98;0.70;;;17.00;97.20;;;;;;1734613;28;20204;-73
2022/09/10 06:47:21;;;;;;;3.63;1.00;;;17.00;97.20;;;;;;1734326;28;20227;-72
2022/09/10 06:48:14;;;;;;;1.45;0.88;;;17.00;97.20;;;;;;1734686;28;20196;-72
2022/09/10 06:49:06;;;;;;;2.17;0.70;;;17.00;97.20;;;;;;1734606;28;20199;-73
2022/09/10 06:50:03;;;;;;;1.63;0.80;;;17.10;97.20;;;;;;1734748;28;20235;-70
2022/09/10 06:50:57;;;;;;;1.85;0.80;;;17.10;97.20;;;;;;1734777;28;20284;-73
2022/09/10 06:51:48;;;;;;;1.63;0.90;;;17.10;97.20;;;;;;1734638;28;20235;-72
2022/09/10 06:52:40;;;;;;;2.08;0.75;;;17.10;97.20;;;;;;1734679;28;20200;-73
2022/09/10 06:53:32;;;;;;;2.97;1.00;;;17.10;97.20;;;;;;1734689;28;20226;-73
2022/09/10 06:54:25;;;;;;;1.55;0.90;;;17.10;97.20;;;;;;1734661;28;20257;-74
2022/09/10 06:55:16;;;;;;;2.38;0.80;;;17.10;97.20;;;;;;1734735;28;20411;-73
2022/09/10 06:56:10;;;;;;;1.30;0.70;;;17.10;97.20;;;;;;1734631;28;20229;-73
2022/09/10 06:57:03;;;;;;;1.58;0.80;;;17.10;97.20;;;;;;1734518;28;20729;-73
2022/09/10 06:57:55;;;;;;;1.00;0.70;;;17.10;97.20;;;;;;1734414;28;20594;-73
2022/09/10 06:58:45;;;;;;;2.38;0.80;;;17.10;97.20;;;;;;1734542;28;20215;-72
2022/09/10 06:59:37;;;;;;;2.00;0.83;;;17.10;97.20;;;;;;1734410;28;20188;-73
2022/09/10 07:00:30;;;;;;;1.00;0.82;;;17.10;97.20;;;;;;1734600;28;20204;-72
2022/09/10 07:01:24;;;;;;;3.40;1.27;;;17.10;97.20;;;;;;1734563;28;20207;-73
2022/09/10 07:02:15;;;;;;;2.45;0.82;;;17.10;97.20;;;;;;1734469;28;20196;-72
2022/09/10 07:03:05;;;;;;;1.10;0.67;;;17.10;97.20;;;;;;1734618;28;20195;-72
2022/09/10 07:04:00;;;;;;;1.80;0.83;;;17.10;97.20;;;;;;1734597;28;20198;-72
2022/09/10 07:04:51;;;;;;;2.25;1.08;;;17.10;97.20;;;;;;1734589;28;20211;-73
2022/09/10 07:05:44;;;;;;;1.73;0.80;;;17.10;97.20;;;;;;1734581;28;20192;-74
2022/09/10 07:06:36;;;;;;;4.82;0.98;;;17.10;97.20;;;;;;1734277;28;20260;-72
2022/09/10 07:07:28;;;;;;;1.15;0.80;;;17.10;97.20;;;;;;1733677;28;20203;-72
2022/09/10 07:08:19;;;;;;;1.75;0.70;;;17.10;97.20;;;;;;1734551;28;20207;-73
2022/09/10 07:09:11;;;;;;;1.00;0.70;;;17.00;97.20;;;;;;1734537;28;20234;-73
2022/09/10 07:10:02;;;;;;;3.28;1.02;;;17.00;97.20;;;;;;1734551;28;20223;-73
2022/09/10 07:11:00;;;;;;;1.60;0.70;;;17.00;97.20;;;;;;1734595;28;20199;-73
2022/09/10 07:11:51;;;;;;;1.52;0.88;;;17.00;97.20;;;;;;1734663;28;20605;-73
2022/09/10 07:12:43;;;;;;;4.17;0.90;;;17.00;97.20;;;;;;1734576;28;20217;-74
2022/09/10 07:13:34;;;;;;;1.10;0.85;;;17.00;97.20;;;;;;1734210;28;20469;-72
2022/09/10 07:14:26;;;;;;;2.00;0.90;;;17.00;97.20;;;;;;1734317;28;20199;-72
2022/09/10 07:15:16;;;;;;;4.43;1.20;;;17.00;97.20;;;;;;1734554;28;20442;-74
2022/09/10 07:16:09;;;;;;;1.47;0.80;;;17.00;97.20;;;;;;1734598;28;20210;-72
2022/09/10 07:16:59;;;;;;;1.10;0.80;;;17.00;97.20;;;;;;1734387;28;20224;-72
2022/09/10 07:17:51;;;;;;;2.37;0.80;;;17.00;97.20;;;;;;1734320;28;20206;-73
2022/09/10 07:18:42;;;;;;;1.92;0.88;;;17.00;97.20;;;;;;1734429;28;20214;-73
2022/09/10 07:19:36;;;;;;;2.00;0.97;;;17.00;97.20;;;;;;1734526;28;20200;-73
2022/09/10 07:20:28;;;;;;;2.35;0.90;;;17.00;97.20;;;;;;1734480;28;20208;-72
2022/09/10 07:21:20;;;;;;;1.92;1.13;;;17.00;97.20;;;;;;1734476;28;20191;-72
2022/09/10 07:22:11;;;;;;;2.75;0.95;;;17.00;97.20;;;;;;1734477;28;20682;-72
2022/09/10 07:23:03;;;;;;;1.70;1.13;;;16.90;97.20;;;;;;1734525;28;20572;-74
2022/09/10 07:23:55;;;;;;;1.85;0.82;;;17.00;97.20;;;;;;1734500;28;20465;-72
2022/09/10 07:24:49;;;;;;;1.13;0.80;;;16.90;97.20;;;;;;1734365;28;20594;-72
2022/09/10 07:25:40;;;;;;;1.25;0.80;;;17.00;97.20;;;;;;1734484;28;20633;-72
2022/09/10 07:26:32;;;;;;;1.00;0.80;;;17.00;97.20;;;;;;1734533;28;20203;-73
2022/09/10 07:27:24;;;;;;;1.67;0.70;;;17.00;97.20;;;;;;1734013;28;20220;-73
2022/09/10 07:28:17;;;;;;;1.60;0.80;;;17.00;97.20;;;;;;1733969;28;20563;-72
2022/09/10 07:29:08;;;;;;;2.55;1.08;;;17.00;97.20;;;;;;1734356;28;20199;-74
2022/09/10 07:30:00;;;;;;;2.07;0.90;;;17.10;97.20;;;;;;1734471;28;20198;-73
2022/09/10 07:30:51;;;;;;;2.13;0.82;;;17.10;97.20;;;;;;1734405;28;20478;-73
2022/09/10 07:31:42;;;;;;;1.63;0.80;;;17.10;97.20;;;;;;1734333;28;20206;-72
2022/09/10 07:32:34;;;;;;;3.15;0.90;;;17.10;97.20;;;;;;1734512;28;20446;-73
2022/09/10 07:33:25;;;;;;;1.20;0.80;;;17.10;97.20;;;;;;1734357;28;20231;-73
2022/09/10 07:34:16;;;;;;;1.33;0.70;;;17.10;97.20;;;;;;1734146;28;20207;-74
2022/09/10 07:35:09;;;;;;;2.50;0.77;;;17.10;97.20;;;;;;1734446;28;20228;-73
2022/09/10 07:36:00;;;;;;;3.53;1.00;;;17.10;97.20;;;;;;1734366;28;20204;-72
2022/09/10 07:36:55;;;;;;;1.40;0.80;;;17.10;97.20;;;;;;1734308;28;20222;-73
2022/09/10 07:37:46;;;;;;;1.25;0.82;;;17.20;97.20;;;;;;1734152;28;20698;-72
2022/09/10 07:38:38;;;;;;;7.50;0.97;;;17.20;97.20;;;;;;1734282;28;20585;-73
2022/09/10 07:39:29;;;;;;;2.40;0.90;;;17.20;97.20;;;;;;1734344;28;20200;-73
2022/09/10 07:40:22;;;;;;;1.80;0.70;;;17.20;97.20;;;;;;1734397;28;20199;-73
2022/09/10 07:41:14;;;;;;;1.40;1.00;;;17.20;97.20;;;;;;1734442;28;20196;-73
2022/09/10 07:42:06;;;;;;;1.98;0.77;;;17.20;97.20;;;;;;1734349;28;20659;-73
2022/09/10 07:42:58;;;;;;;3.17;1.05;;;17.30;97.20;;;;;;1734431;28;20200;-73
2022/09/10 07:43:54;;;;;;;4.50;1.00;;;17.30;97.20;;;;;;1734353;28;20861;-74
2022/09/10 07:44:44;;;;;;;3.97;0.85;;;17.30;97.20;;;;;;1734272;28;20281;-73
2022/09/10 07:45:36;;;;;;;1.17;0.80;;;17.30;97.20;;;;;;1734422;28;20253;-73
2022/09/10 07:46:27;;;;;;;1.98;0.77;;;17.30;97.20;;;;;;1734303;28;20203;-73
2022/09/10 07:47:19;;;;;;;1.37;0.90;;;17.30;97.20;;;;;;1733947;28;20724;-72
2022/09/10 07:48:10;;;;;;;1.30;0.80;;;17.30;97.20;;;;;;1733997;28;20493;-72
2022/09/10 07:49:03;;;;;;;2.80;1.10;;;17.30;97.20;;;;;;1734263;28;20274;-73
2022/09/10 07:49:55;;;;;;;1.80;0.85;;;17.30;97.20;;;;;;1734356;28;20204;-72
2022/09/10 07:50:48;;;;;;;1.50;0.80;;;17.30;97.20;;;;;;1734255;28;20586;-72
2022/09/10 07:51:39;;;;;;;1.10;0.70;;;17.30;97.20;;;;;;1734330;28;20200;-73
2022/09/10 07:52:31;;;;;;;1.00;0.70;;;17.30;97.20;;;;;;1734367;28;20208;-72
2022/09/10 07:53:22;;;;;;;2.05;0.93;;;17.30;97.20;;;;;;1734279;28;20203;-72
2022/09/10 07:54:16;;;;;;;1.00;0.70;;;17.30;97.20;;;;;;1734337;28;20230;-73
2022/09/10 07:55:07;;;;;;;1.85;0.90;;;17.30;97.20;;;;;;1734245;28;20196;-73
2022/09/10 07:56:01;;;;;;;1.25;0.77;;;17.30;97.20;;;;;;1734318;28;20206;-72
2022/09/10 07:56:52;;;;;;;1.20;0.85;;;17.40;97.20;;;;;;1734173;28;20208;-72
2022/09/10 07:57:44;;;;;;;2.57;0.80;;;17.40;97.20;;;;;;1734078;28;20238;-72
2022/09/10 07:58:36;;;;;;;2.25;0.80;;;17.40;97.20;;;;;;1734217;28;20235;-72
2022/09/10 07:59:27;;;;;;;1.15;0.75;;;17.40;97.20;;;;;;1734213;28;20261;-73
2022/09/10 08:00:18;;;;;;;2.20;0.85;;;17.40;97.20;;;;;;1734277;28;20585;-72
2022/09/10 08:01:11;;;;;;;1.43;0.70;;;17.40;97.20;;;;;;1734279;28;20564;-72
2022/09/10 08:02:02;;;;;;;1.25;0.80;;;17.40;97.20;;;;;;1734013;28;20244;-73
2022/09/10 08:02:54;;;;;;;0.98;0.88;;;17.40;97.20;;;;;;1734263;28;20200;-72
2022/09/10 08:03:45;;;;;;;1.52;0.73;;;17.40;97.20;;;;;;1734236;28;20310;-72
2022/09/10 08:04:37;;;;;;;2.95;0.98;;;17.50;97.20;;;;;;1734137;28;20199;-73
2022/09/10 08:05:28;;;;;;;1.85;0.82;;;17.50;97.20;;;;;;1734258;28;20214;-72
2022/09/10 08:06:22;;;;;;;1.10;0.80;;;17.50;97.20;;;;;;1734197;28;20195;-72
2022/09/10 08:07:13;;;;;;;1.38;0.73;;;17.50;97.20;;;;;;1733910;28;21020;-72
2022/09/10 08:08:04;;;;;;;1.20;0.70;;;17.50;97.20;;;;;;1734213;28;20218;-73
2022/09/10 08:08:55;;;;;;;2.15;0.82;;;17.50;97.20;;;;;;1734180;28;20212;-72
2022/09/10 08:09:47;;;;;;;1.00;0.70;;;17.50;97.20;;;;;;1734206;28;20195;-72
2022/09/10 08:10:38;;;;;;;1.30;0.90;;;17.50;97.20;;;;;;1734240;28;20211;-72
2022/09/10 08:11:31;;;;;;;1.00;0.80;;;17.40;97.20;;;;;;1734208;28;20231;-72
2022/09/10 08:12:24;;;;;;;2.58;1.00;;;17.40;97.20;;;;;;1734198;28;20200;-72
2022/09/10 08:13:16;;;;;;;1.55;0.77;;;17.40;97.20;;;;;;1734261;28;20196;-72
2022/09/10 08:14:07;;;;;;;2.28;0.77;;;17.40;97.20;;;;;;1734206;28;20204;-73
2022/09/10 08:14:58;;;;;;;1.87;0.90;;;17.40;97.20;;;;;;1734283;28;20210;-72
2022/09/10 08:15:50;;;;;;;1.23;0.73;;;17.40;97.20;;;;;;1734262;28;20199;-72
2022/09/10 08:16:42;;;;;;;1.50;0.80;;;17.40;97.20;;;;;;1733745;28;20275;-72
2022/09/10 08:17:35;;;;;;;1.23;1.00;;;17.40;97.20;;;;;;1733950;28;20206;-72
2022/09/10 08:18:29;;;;;;;2.13;0.90;;;17.40;97.20;;;;;;1733893;28;20196;-72
2022/09/10 08:19:19;;;;;;;1.45;0.80;;;17.40;97.20;;;;;;1734255;28;20775;-73
2022/09/10 08:20:12;;;;;;;1.37;0.70;;;17.40;97.20;;;;;;1734195;28;20564;-73
2022/09/10 08:21:03;;;;;;;1.88;0.90;;;17.40;97.20;;;;;;1734185;28;20773;-72
2022/09/10 08:21:56;;;;;;;1.43;0.90;;;17.50;97.20;;;;;;1734257;28;20829;-74
2022/09/10 08:22:48;;;;;;;2.00;0.80;;;17.50;97.20;;;;;;1734102;28;20491;-72
2022/09/10 08:23:40;;;;;;;1.35;0.85;;;17.50;97.20;;;;;;1734154;28;20203;-72
2022/09/10 08:24:31;;;;;;;1.30;0.90;;;17.50;97.20;;;;;;1733831;28;20211;-72
2022/09/10 08:25:23;;;;;;;2.23;0.80;;;17.50;97.20;;;;;;1733845;28;20216;-72
2022/09/10 08:26:13;;;;;;;1.80;0.90;;;17.60;97.20;;;;;;1734146;28;20224;-72
2022/09/10 08:27:05;;;;;;;0.87;0.60;;;17.60;97.20;;;;;;1733967;28;20732;-73
2022/09/10 08:27:56;;;;;;;1.33;0.77;;;17.60;97.20;;;;;;1733961;28;20199;-74
2022/09/10 08:28:48;;;;;;;1.10;0.77;;;17.60;97.20;;;;;;1734023;28;20227;-73
2022/09/10 08:29:39;;;;;;;0.90;0.60;;;17.70;97.20;;;;;;1734197;28;20231;-72
2022/09/10 08:30:31;;;;;;;1.37;1.10;;;17.80;97.20;;;;;;1734146;28;20214;-72
2022/09/10 08:31:23;;;;;;;1.95;0.90;;;17.80;97.20;;;;;;1734124;28;20203;-72
2022/09/10 08:32:15;;;;;;;1.33;0.70;;;17.90;97.20;;;;;;1734136;28;20234;-72
2022/09/10 08:33:05;;;;;;;1.90;0.75;;;17.90;97.20;;;;;;1733866;28;20223;-72
2022/09/10 08:33:57;;;;;;;1.73;0.67;;;18.00;97.20;;;;;;1734258;28;20206;-73
2022/09/10 08:34:48;;;;;;;1.70;0.90;;;18.00;97.20;;;;;;1734143;28;20231;-72
2022/09/10 08:35:40;;;;;;;0.90;0.60;;;18.10;97.20;;;;;;1734116;28;20222;-73
2022/09/10 08:36:30;;;;;;;1.23;0.70;;;18.10;97.20;;;;;;1734107;28;20203;-73
2022/09/10 08:37:24;;;;;;;1.10;0.80;;;18.10;97.20;;;;;;1733727;28;20216;-72
2022/09/10 08:38:15;;;;;;;1.33;0.70;;;18.10;97.20;;;;;;1734160;28;20686;-73
2022/09/10 08:39:06;;;;;;;1.70;0.90;;;18.10;97.20;;;;;;1734063;28;20659;-72
2022/09/10 08:39:57;;;;;;;1.63;0.77;;;18.10;97.20;;;;;;1734162;28;20476;-73
2022/09/10 08:40:50;;;;;;;1.05;0.70;;;18.10;97.20;;;;;;1734131;28;20203;-72
2022/09/10 08:41:47;;;;;;;1.75;0.70;;;18.10;97.20;;;;;;1734143;28;20200;-72
2022/09/10 08:42:45;;;;;;;2.45;0.85;;;18.10;97.20;;;;;;1734217;28;20686;-72
2022/09/10 08:43:41;;;;;;;1.20;0.73;;;18.00;97.20;;;;;;1734222;28;20691;-72
2022/09/10 08:44:38;;;;;;;1.48;0.80;;;18.00;97.20;;;;;;1734184;28;20200;-72
2022/09/10 08:45:32;;;;;;;2.17;0.80;;;18.00;97.20;;;;;;1734029;28;20242;-73
2022/09/10 08:46:26;;;;;;;2.25;0.65;;;18.00;97.20;;;;;;1734097;28;20211;-72
2022/09/10 08:47:26;;;;;;;1.90;0.80;;;18.00;97.20;;;;;;1733798;28;20266;-74
2022/09/10 08:48:22;;;;;;;1.38;0.60;;;18.00;97.20;;;;;;1734121;28;20226;-73
2022/09/10 08:49:18;;;;;;;1.42;0.70;;;18.00;97.20;;;;;;1733834;28;20206;-72
2022/09/10 08:50:17;;;;;;;1.80;0.80;;;18.10;97.20;;;;;;1727414;28;20212;-72
2022/09/10 08:51:14;;;;;;;1.55;0.70;;;18.10;97.20;;;;;;1727466;28;20204;-72
2022/09/10 08:52:15;;;;;;;2.85;0.90;;;18.10;97.20;;;;;;1727300;28;20196;-73
2022/09/10 08:53:19;;;;;;;1.77;0.70;;;18.10;97.20;;;;;;1727249;28;20733;-72
2022/09/10 08:54:15;;;;;;;1.13;0.65;;;18.10;97.20;;;;;;1727269;28;20215;-72
2022/09/10 08:55:21;;;;;;;1.98;0.60;;;18.10;97.20;;;;;;1727286;28;20205;-72
2022/09/10 08:56:16;;;;;;;4.32;0.73;;;18.20;97.20;;;;;;1727343;28;20262;-73
2022/09/10 08:57:16;;;;;;;1.88;0.70;;;18.20;97.20;;;;;;1727161;28;20225;-73
2022/09/10 08:58:17;;;;;;;1.48;0.70;;;18.20;97.20;;;;;;1727327;28;20200;-73
2022/09/10 08:59:18;;;;;;;2.78;1.10;;;18.30;97.20;;;;;;1727212;28;20205;-73
2022/09/10 09:00:13;;;;;;;1.45;0.90;;;18.30;97.20;;;;;;1727232;28;20204;-72
2022/09/10 09:01:10;;;;;;;1.85;0.85;;;18.40;97.20;;;;;;1727254;28;20219;-73
2022/09/10 09:02:15;;;;;;;4.70;0.90;;;18.40;97.20;;;;;;1727387;28;20216;-73
2022/09/10 09:03:13;;;;;;;2.67;0.70;;;18.50;97.20;;;;;;1727333;28;20211;-73
2022/09/10 09:04:15;;;;;;;1.58;0.70;;;18.50;97.20;;;;;;1727364;28;20548;-72
2022/09/10 09:05:13;;;;;;;1.63;0.93;;;18.60;97.20;;;;;;1727176;28;20205;-72
2022/09/10 09:06:11;;;;;;;4.13;0.70;;;18.60;97.20;;;;;;1730470;28;20717;-72
2022/09/10 09:07:10;;;;;;;1.75;1.00;;;18.70;97.20;;;;;;1734002;28;20362;-73
2022/09/10 09:08:05;;;;;;;1.95;1.10;;;18.70;97.20;;;;;;1734099;28;20192;-72
2022/09/10 09:08:59;;;;;;;2.38;1.20;;;18.70;97.20;;;;;;1734026;28;20581;-73
2022/09/10 09:09:52;;;;;;;2.17;0.70;;;18.70;97.20;;;;;;1734016;28;20204;-73
2022/09/10 09:10:47;;;;;;;1.95;0.70;;;18.70;97.20;;;;;;1734025;28;20208;-72
2022/09/10 09:11:48;;;;;;;2.22;0.95;;;18.70;97.20;;;;;;1734084;28;20283;-73
2022/09/10 09:12:54;;;;;;;2.45;0.82;;;18.60;97.20;;;;;;1734078;28;20211;-72
2022/09/10 09:14:03;;;;;;;1.08;0.70;;;18.70;97.20;;;;;;1734044;28;20697;-73
2022/09/10 09:15:08;;;;;;;1.67;0.80;;;18.70;97.20;;;;;;1734024;28;20243;-72
2022/09/10 09:16:19;;;;;;;2.17;0.82;;;18.70;97.20;;;;;;1734077;28;20583;-74
2022/09/10 09:17:33;;;;;;;2.22;0.98;;;18.70;97.20;;;;;;1731841;28;20219;-74
2022/09/10 09:18:33;;;;;;;1.95;1.00;;;18.80;97.20;;;;;;1733997;28;20593;-74
2022/09/10 09:19:32;;;;;;;2.35;0.80;;;18.80;97.20;;;;;;1734003;28;20564;-74
2022/09/10 09:20:31;;;;;;;2.38;0.95;;;18.80;97.20;;;;;;1734093;28;20570;-72
2022/09/10 09:21:30;;;;;;;2.10;0.80;;;18.80;97.20;;;;;;1734056;28;20283;-72
2022/09/10 09:22:29;;;;;;;4.78;1.45;;;18.80;97.20;;;;;;1733953;28;20568;-72
2022/09/10 09:23:23;;;;;;;3.40;1.15;;;18.80;97.20;;;;;;1733529;28;20279;-72
2022/09/10 09:24:22;;;;;;;4.50;1.40;;;18.80;97.20;;;;;;1734031;28;20207;-73
2022/09/10 09:25:23;;;;;;;2.97;0.70;;;18.80;97.20;;;;;;1733860;28;20251;-73
2022/09/10 09:26:14;;;;;;;3.22;1.27;;;18.80;97.20;;;;;;1734059;28;20204;-72
2022/09/10 09:27:13;;;;;;;6.63;1.33;;;18.80;97.20;;;;;;1733895;28;20216;-72
2022/09/10 09:28:13;;;;;;;2.13;0.88;;;18.70;97.20;;;;;;1734054;28;20244;-72
2022/09/10 09:29:13;;;;;;;2.47;0.90;;;18.70;97.20;;;;;;1733951;28;20206;-74
2022/09/10 09:30:11;;;;;;;3.55;1.35;;;18.70;97.20;;;;;;1734063;28;20208;-72
2022/09/10 09:31:10;;;;;;;2.42;1.00;;;18.60;97.20;;;;;;1735300;28;20192;-73
2022/09/10 09:32:04;;;;;;;2.20;0.85;;;18.60;97.20;;;;;;1735217;28;20603;-73
2022/09/10 09:33:02;;;;;;;2.58;1.10;;;18.50;97.20;;;;;;1735227;28;20279;-72
2022/09/10 09:33:59;;;;;;;1.10;0.80;;;18.50;97.20;;;;;;1735187;28;20203;-73
2022/09/10 09:34:54;;;;;;;2.97;1.10;;;18.50;97.20;;;;;;1735227;28;20196;-72
2022/09/10 09:35:47;;;;;;;3.63;1.25;;;18.50;97.20;;;;;;1735174;28;20215;-72
2022/09/10 09:36:44;;;;;;;2.17;0.85;;;18.50;97.20;;;;;;1735074;28;20638;-74